Flight Track Log - Related Links

Times and Time Zones

All times are in EDT time to prevent confusion due to time zone crossing. See the SLI2120 flight status page for this flight to view local times or setup timezone preferences in your user account.

Time Position Orientation Groundspeed Altitude Reporting Facility
EDT Latitude Longitude Course Direction KTS MPH feet Rate Location/Type
Fri 10:20:00 AM 20.8158 -103.5885 319° Northwest  Level Estimated
Fri 10:21:00 AM 20.8745 -103.6441 319° Northwest  Level Estimated
Fri 10:22:00 AM 20.9333 -103.6998 318° Northwest  Level Estimated
Fri 10:23:00 AM 20.9920 -103.7554 318° Northwest  Level Estimated
Fri 10:24:00 AM 21.0622 -103.8221 318° Northwest  Level Estimated
Fri 10:25:00 AM 21.1324 -103.8889 318° Northwest  Level Estimated
Fri 10:26:00 AM 21.2026 -103.9557 318° Northwest  Level Estimated
Fri 10:27:00 AM 21.2728 -104.0226 318° Northwest  Level Estimated
Fri 10:28:00 AM 21.3429 -104.0896 318° Northwest  Level Estimated
Fri 10:29:00 AM 21.4130 -104.1566 318° Northwest  Level Estimated
Fri 10:30:00 AM 21.4831 -104.2237 318° Northwest  Level Estimated
Fri 10:31:00 AM 21.5532 -104.2908 318° Northwest  Level Estimated
Fri 10:32:00 AM 21.6232 -104.3580 318° Northwest  Level Estimated
Fri 10:33:00 AM 21.6932 -104.4253 318° Northwest  Level Estimated
Fri 10:34:00 AM 21.7631 -104.4926 318° Northwest  Level Estimated
Fri 10:35:00 AM 21.8331 -104.5600 318° Northwest  Level Estimated
Fri 10:36:00 AM 21.9030 -104.6275 318° Northwest  Level Estimated
Fri 10:37:00 AM 21.9729 -104.6950 318° Northwest  Level Estimated
Fri 10:38:00 AM 22.0427 -104.7626 318° Northwest  Level Estimated
Fri 10:39:00 AM 22.1126 -104.8303 318° Northwest  Level Estimated
Fri 10:40:00 AM 22.1824 -104.8980 318° Northwest  Level Estimated
Fri 10:41:00 AM 22.2522 -104.9659 318° Northwest  Level Estimated
Fri 10:42:00 AM 22.3219 -105.0337 318° Northwest  Level Estimated
Fri 10:43:00 AM 22.3916 -105.1017 318° Northwest  Level Estimated
Fri 10:44:00 AM 22.4613 -105.1697 318° Northwest  Level Estimated
Fri 10:45:00 AM 22.5310 -105.2378 318° Northwest  Level Estimated
Fri 10:46:00 AM 22.6006 -105.3059 318° Northwest  Level Estimated
Fri 10:47:00 AM 22.6702 -105.3741 318° Northwest  Level Estimated
Fri 10:48:00 AM 22.7398 -105.4424 318° Northwest  Level Estimated
Fri 10:49:00 AM 22.8094 -105.5107 318° Northwest  Level Estimated
Fri 10:50:00 AM 22.8789 -105.5792 318° Northwest  Level Estimated
Fri 10:51:00 AM 22.9484 -105.6477 318° Northwest  Level Estimated
Fri 10:52:00 AM 23.0178 -105.7162 318° Northwest  Level Estimated
Fri 10:53:00 AM 23.0873 -105.7849 318° Northwest  Level Estimated
Fri 10:54:00 AM 23.1567 -105.8536 318° Northwest  Level Estimated
Fri 10:55:00 AM 23.2260 -105.9223 318° Northwest  Level Estimated
Fri 10:56:00 AM 23.2954 -105.9912 318° Northwest  Level Estimated
Fri 10:57:00 AM 23.3647 -106.0601 318° Northwest  Level Estimated
Fri 10:58:00 AM 23.4340 -106.1291 318° Northwest  Level Estimated
Fri 10:59:00 AM 23.5032 -106.1982 318° Northwest  Level Estimated
Fri 11:00:00 AM 23.5724 -106.2673 318° Northwest  Level Estimated
Fri 11:01:00 AM 23.6416 -106.3365 318° Northwest  Level Estimated
Fri 11:02:00 AM 23.7108 -106.4058 317° Northwest  Level Estimated
Fri 11:03:00 AM 23.7799 -106.4752 317° Northwest  Level Estimated
Fri 11:04:00 AM 23.8490 -106.5446 317° Northwest  Level Estimated
Fri 11:05:00 AM 23.9181 -106.6141 317° Northwest  Level Estimated
Fri 11:06:00 AM 23.9871 -106.6837 317° Northwest  Level Estimated
Fri 11:07:00 AM 24.0561 -106.7533 317° Northwest  Level Estimated
Fri 11:08:00 AM 24.1251 -106.8231 317° Northwest  Level Estimated
Fri 11:09:00 AM 24.1940 -106.8929 317° Northwest  Level Estimated
Fri 11:10:00 AM 24.2629 -106.9627 317° Northwest  Level Estimated
Fri 11:11:00 AM 24.3318 -107.0327 317° Northwest  Level Estimated
Fri 11:12:00 AM 24.4007 -107.1027 317° Northwest  Level Estimated
Fri 11:13:00 AM 24.4695 -107.1728 317° Northwest  Level Estimated
Fri 11:14:00 AM 24.5382 -107.2430 317° Northwest  Level Estimated
Fri 11:15:00 AM 24.6070 -107.3133 317° Northwest  Level Estimated
Fri 11:16:00 AM 24.6757 -107.3836 317° Northwest  Level Estimated
Fri 11:17:00 AM 24.7444 -107.4540 317° Northwest  Level Estimated
Fri 11:18:00 AM 24.7645 -107.4747 317° Northwest  Level Estimated
Fri 11:19:00 AM 24.7645 -107.4747 138° Southeast  Level Estimated
Fri 11:20:00 AM 24.7645 -107.4747 138° Southeast  Level Estimated
Fri 11:21:00 AM 24.7645 -107.4747 138° Southeast  Level Estimated
Fri 11:22:00 AM 24.7645 -107.4747 138° Southeast  Level Estimated
Fri 11:23:00 AM 24.7645 -107.4747 138° Southeast  Level Estimated
Fri 11:24:00 AM 24.7645 -107.4747 138° Southeast  Level Estimated
Fri 11:25:00 AM 24.7645 -107.4747 138° Southeast  Level Estimated
Fri 11:26:00 AM 24.7645 -107.4747 138° Southeast  Level Estimated
Fri 11:27:00 AM 24.7645 -107.4747 138° Southeast  Level Estimated
Fri 11:28:00 AM 24.7645 -107.4747 138° Southeast  Level Estimated
Fri 11:29:00 AM 24.7645 -107.4747 138° Southeast  Level Estimated
Fri 11:30:00 AM 24.7645 -107.4747 138° Southeast  Level Estimated
Fri 11:31:00 AM 24.7645 -107.4747 138° Southeast  Level Estimated

Login

Don't have an account? Register now (free) for customized features, flight alerts, and more!